sensor_id;sensor_type;location;lat;lon;timestamp;P1;durP1;ratioP1;P2;durP2;ratioP2
28623;SDS011;15813;46.932;19.658;2023-05-07T00:02:18;19.40;;;13.20;;
28623;SDS011;15813;46.932;19.658;2023-05-07T00:04:44;20.25;;;13.52;;
28623;SDS011;15813;46.932;19.658;2023-05-07T00:07:10;16.67;;;12.10;;
28623;SDS011;15813;46.932;19.658;2023-05-07T00:09:35;19.42;;;11.90;;
28623;SDS011;15813;46.932;19.658;2023-05-07T00:12:00;15.60;;;11.65;;
28623;SDS011;15813;46.932;19.658;2023-05-07T00:14:26;21.17;;;12.55;;
28623;SDS011;15813;46.932;19.658;2023-05-07T00:16:51;17.35;;;12.27;;
28623;SDS011;15813;46.932;19.658;2023-05-07T00:19:16;22.35;;;12.35;;
28623;SDS011;15813;46.932;19.658;2023-05-07T00:21:42;16.20;;;10.80;;
28623;SDS011;15813;46.932;19.658;2023-05-07T00:24:07;16.30;;;12.00;;
28623;SDS011;15813;46.932;19.658;2023-05-07T00:26:32;20.13;;;11.52;;
28623;SDS011;15813;46.932;19.658;2023-05-07T00:28:58;16.98;;;12.73;;
28623;SDS011;15813;46.932;19.658;2023-05-07T00:31:23;16.13;;;11.03;;
28623;SDS011;15813;46.932;19.658;2023-05-07T00:33:48;15.63;;;12.35;;
28623;SDS011;15813;46.932;19.658;2023-05-07T00:36:14;14.57;;;10.98;;
28623;SDS011;15813;46.932;19.658;2023-05-07T00:38:39;17.80;;;11.98;;
28623;SDS011;15813;46.932;19.658;2023-05-07T00:41:04;15.70;;;11.70;;
28623;SDS011;15813;46.932;19.658;2023-05-07T00:43:30;16.23;;;11.35;;
28623;SDS011;15813;46.932;19.658;2023-05-07T00:45:55;16.23;;;11.05;;
28623;SDS011;15813;46.932;19.658;2023-05-07T00:48:20;18.42;;;11.88;;
28623;SDS011;15813;46.932;19.658;2023-05-07T00:50:46;16.95;;;11.18;;
28623;SDS011;15813;46.932;19.658;2023-05-07T00:53:12;20.67;;;10.95;;
28623;SDS011;15813;46.932;19.658;2023-05-07T00:55:38;14.80;;;11.73;;
28623;SDS011;15813;46.932;19.658;2023-05-07T00:58:03;13.13;;;9.77;;
28623;SDS011;15813;46.932;19.658;2023-05-07T01:00:28;15.00;;;10.38;;
28623;SDS011;15813;46.932;19.658;2023-05-07T01:02:54;19.45;;;10.68;;
28623;SDS011;15813;46.932;19.658;2023-05-07T01:05:19;12.95;;;9.63;;
28623;SDS011;15813;46.932;19.658;2023-05-07T01:07:45;14.00;;;10.27;;
28623;SDS011;15813;46.932;19.658;2023-05-07T01:10:11;14.82;;;10.85;;
28623;SDS011;15813;46.932;19.658;2023-05-07T01:12:37;14.90;;;10.90;;
28623;SDS011;15813;46.932;19.658;2023-05-07T01:15:03;14.60;;;10.65;;
28623;SDS011;15813;46.932;19.658;2023-05-07T01:17:28;16.13;;;10.48;;
28623;SDS011;15813;46.932;19.658;2023-05-07T01:19:54;14.32;;;10.63;;
28623;SDS011;15813;46.932;19.658;2023-05-07T01:22:32;16.88;;;11.80;;
28623;SDS011;15813;46.932;19.658;2023-05-07T01:24:58;15.80;;;11.57;;
28623;SDS011;15813;46.932;19.658;2023-05-07T01:27:24;16.55;;;11.05;;
28623;SDS011;15813;46.932;19.658;2023-05-07T01:29:50;14.18;;;11.35;;
28623;SDS011;15813;46.932;19.658;2023-05-07T01:32:15;18.13;;;12.57;;
28623;SDS011;15813;46.932;19.658;2023-05-07T01:34:43;18.75;;;11.95;;
28623;SDS011;15813;46.932;19.658;2023-05-07T01:37:09;18.25;;;12.02;;
28623;SDS011;15813;46.932;19.658;2023-05-07T01:39:36;20.65;;;11.95;;
28623;SDS011;15813;46.932;19.658;2023-05-07T01:42:01;18.23;;;11.20;;
28623;SDS011;15813;46.932;19.658;2023-05-07T01:44:26;14.77;;;11.93;;
28623;SDS011;15813;46.932;19.658;2023-05-07T01:46:52;17.92;;;11.15;;
28623;SDS011;15813;46.932;19.658;2023-05-07T01:49:18;15.63;;;11.30;;
28623;SDS011;15813;46.932;19.658;2023-05-07T01:51:43;15.85;;;11.98;;
28623;SDS011;15813;46.932;19.658;2023-05-07T01:54:09;15.10;;;10.52;;
28623;SDS011;15813;46.932;19.658;2023-05-07T01:56:34;15.07;;;11.40;;
28623;SDS011;15813;46.932;19.658;2023-05-07T01:59:00;18.83;;;12.25;;
28623;SDS011;15813;46.932;19.658;2023-05-07T02:01:25;14.38;;;11.25;;
28623;SDS011;15813;46.932;19.658;2023-05-07T02:03:50;17.52;;;12.20;;
28623;SDS011;15813;46.932;19.658;2023-05-07T02:06:16;16.30;;;12.20;;
28623;SDS011;15813;46.932;19.658;2023-05-07T02:08:41;19.35;;;11.45;;
28623;SDS011;15813;46.932;19.658;2023-05-07T02:11:06;23.35;;;12.82;;
28623;SDS011;15813;46.932;19.658;2023-05-07T02:13:32;17.95;;;12.65;;
28623;SDS011;15813;46.932;19.658;2023-05-07T02:15:57;19.65;;;12.73;;
28623;SDS011;15813;46.932;19.658;2023-05-07T02:18:23;17.23;;;12.90;;
28623;SDS011;15813;46.932;19.658;2023-05-07T02:20:48;20.25;;;12.70;;
28623;SDS011;15813;46.932;19.658;2023-05-07T02:23:13;20.00;;;14.10;;
28623;SDS011;15813;46.932;19.658;2023-05-07T02:25:39;22.90;;;13.07;;
28623;SDS011;15813;46.932;19.658;2023-05-07T02:28:04;18.52;;;12.15;;
28623;SDS011;15813;46.932;19.658;2023-05-07T02:30:29;19.20;;;11.63;;
28623;SDS011;15813;46.932;19.658;2023-05-07T02:32:54;18.90;;;12.20;;
28623;SDS011;15813;46.932;19.658;2023-05-07T02:35:20;21.85;;;12.40;;
28623;SDS011;15813;46.932;19.658;2023-05-07T02:37:45;17.60;;;12.48;;
28623;SDS011;15813;46.932;19.658;2023-05-07T02:40:10;19.00;;;12.18;;
28623;SDS011;15813;46.932;19.658;2023-05-07T02:42:36;16.58;;;10.77;;
28623;SDS011;15813;46.932;19.658;2023-05-07T02:45:02;19.50;;;12.40;;
28623;SDS011;15813;46.932;19.658;2023-05-07T02:47:27;16.30;;;11.88;;
28623;SDS011;15813;46.932;19.658;2023-05-07T02:49:53;16.60;;;12.95;;
28623;SDS011;15813;46.932;19.658;2023-05-07T02:52:19;16.67;;;11.75;;
28623;SDS011;15813;46.932;19.658;2023-05-07T02:54:44;18.33;;;12.18;;
28623;SDS011;15813;46.932;19.658;2023-05-07T02:57:10;16.25;;;12.70;;
28623;SDS011;15813;46.932;19.658;2023-05-07T02:59:35;19.92;;;12.55;;
28623;SDS011;15813;46.932;19.658;2023-05-07T03:02:00;15.45;;;11.77;;
28623;SDS011;15813;46.932;19.658;2023-05-07T03:04:25;16.17;;;12.00;;
28623;SDS011;15813;46.932;19.658;2023-05-07T03:06:51;18.48;;;13.30;;
28623;SDS011;15813;46.932;19.658;2023-05-07T03:09:16;15.68;;;11.90;;
28623;SDS011;15813;46.932;19.658;2023-05-07T03:11:41;17.75;;;13.43;;
28623;SDS011;15813;46.932;19.658;2023-05-07T03:14:07;17.48;;;12.55;;
28623;SDS011;15813;46.932;19.658;2023-05-07T03:16:32;15.27;;;11.43;;
28623;SDS011;15813;46.932;19.658;2023-05-07T03:18:57;17.00;;;12.88;;
28623;SDS011;15813;46.932;19.658;2023-05-07T03:21:23;16.65;;;11.63;;
28623;SDS011;15813;46.932;19.658;2023-05-07T03:23:48;19.83;;;12.05;;
28623;SDS011;15813;46.932;19.658;2023-05-07T03:26:13;17.75;;;12.35;;
28623;SDS011;15813;46.932;19.658;2023-05-07T03:28:38;20.63;;;12.18;;
28623;SDS011;15813;46.932;19.658;2023-05-07T03:31:04;19.42;;;10.93;;
28623;SDS011;15813;46.932;19.658;2023-05-07T03:33:30;27.65;;;13.43;;
28623;SDS011;15813;46.932;19.658;2023-05-07T03:35:55;18.23;;;11.60;;
28623;SDS011;15813;46.932;19.658;2023-05-07T03:38:20;15.82;;;11.70;;
28623;SDS011;15813;46.932;19.658;2023-05-07T03:40:45;18.27;;;11.88;;
28623;SDS011;15813;46.932;19.658;2023-05-07T03:43:11;15.23;;;11.40;;
28623;SDS011;15813;46.932;19.658;2023-05-07T03:45:36;14.93;;;11.55;;
28623;SDS011;15813;46.932;19.658;2023-05-07T03:48:01;17.10;;;11.65;;
28623;SDS011;15813;46.932;19.658;2023-05-07T03:50:27;15.57;;;11.50;;
28623;SDS011;15813;46.932;19.658;2023-05-07T03:52:52;22.58;;;11.30;;
28623;SDS011;15813;46.932;19.658;2023-05-07T03:55:17;17.25;;;11.80;;
28623;SDS011;15813;46.932;19.658;2023-05-07T03:57:43;15.15;;;10.93;;
28623;SDS011;15813;46.932;19.658;2023-05-07T04:00:08;15.90;;;11.18;;
28623;SDS011;15813;46.932;19.658;2023-05-07T04:02:33;15.23;;;11.82;;
28623;SDS011;15813;46.932;19.658;2023-05-07T04:04:59;20.05;;;11.50;;
28623;SDS011;15813;46.932;19.658;2023-05-07T04:07:24;17.15;;;11.05;;
28623;SDS011;15813;46.932;19.658;2023-05-07T04:09:49;19.90;;;11.20;;
28623;SDS011;15813;46.932;19.658;2023-05-07T04:12:15;15.05;;;11.57;;
28623;SDS011;15813;46.932;19.658;2023-05-07T04:14:40;14.82;;;11.23;;
28623;SDS011;15813;46.932;19.658;2023-05-07T04:17:05;14.80;;;10.90;;
28623;SDS011;15813;46.932;19.658;2023-05-07T04:19:32;15.45;;;11.13;;
28623;SDS011;15813;46.932;19.658;2023-05-07T04:21:58;14.90;;;11.15;;
28623;SDS011;15813;46.932;19.658;2023-05-07T04:24:23;14.77;;;10.67;;
28623;SDS011;15813;46.932;19.658;2023-05-07T04:26:48;16.83;;;10.35;;
28623;SDS011;15813;46.932;19.658;2023-05-07T04:29:14;14.20;;;10.85;;
28623;SDS011;15813;46.932;19.658;2023-05-07T04:31:39;14.90;;;10.52;;
28623;SDS011;15813;46.932;19.658;2023-05-07T04:34:04;12.15;;;9.07;;
28623;SDS011;15813;46.932;19.658;2023-05-07T04:36:30;12.15;;;9.68;;
28623;SDS011;15813;46.932;19.658;2023-05-07T04:38:55;15.43;;;10.80;;
28623;SDS011;15813;46.932;19.658;2023-05-07T04:41:21;15.43;;;11.55;;
28623;SDS011;15813;46.932;19.658;2023-05-07T04:43:46;15.75;;;11.38;;
28623;SDS011;15813;46.932;19.658;2023-05-07T04:46:11;14.15;;;10.52;;
28623;SDS011;15813;46.932;19.658;2023-05-07T04:48:36;19.52;;;12.05;;
28623;SDS011;15813;46.932;19.658;2023-05-07T04:51:02;13.73;;;9.98;;
28623;SDS011;15813;46.932;19.658;2023-05-07T04:53:27;16.00;;;11.52;;
28623;SDS011;15813;46.932;19.658;2023-05-07T04:55:56;13.98;;;10.20;;
28623;SDS011;15813;46.932;19.658;2023-05-07T04:58:24;14.85;;;10.55;;
28623;SDS011;15813;46.932;19.658;2023-05-07T05:00:49;16.60;;;10.20;;
28623;SDS011;15813;46.932;19.658;2023-05-07T05:03:15;16.50;;;11.27;;
28623;SDS011;15813;46.932;19.658;2023-05-07T05:05:40;16.75;;;10.18;;
28623;SDS011;15813;46.932;19.658;2023-05-07T05:08:05;15.90;;;10.25;;
28623;SDS011;15813;46.932;19.658;2023-05-07T05:10:31;12.32;;;9.40;;
28623;SDS011;15813;46.932;19.658;2023-05-07T05:12:56;11.98;;;7.75;;
28623;SDS011;15813;46.932;19.658;2023-05-07T05:15:21;9.40;;;7.93;;
28623;SDS011;15813;46.932;19.658;2023-05-07T05:17:47;11.02;;;8.02;;
28623;SDS011;15813;46.932;19.658;2023-05-07T05:20:12;10.82;;;8.07;;
28623;SDS011;15813;46.932;19.658;2023-05-07T05:22:38;12.55;;;7.78;;
28623;SDS011;15813;46.932;19.658;2023-05-07T05:25:03;10.18;;;8.02;;
28623;SDS011;15813;46.932;19.658;2023-05-07T05:27:28;9.10;;;6.68;;
28623;SDS011;15813;46.932;19.658;2023-05-07T05:29:54;9.95;;;7.32;;
28623;SDS011;15813;46.932;19.658;2023-05-07T05:32:19;9.15;;;7.45;;
28623;SDS011;15813;46.932;19.658;2023-05-07T05:34:45;12.00;;;7.68;;
28623;SDS011;15813;46.932;19.658;2023-05-07T05:37:10;8.10;;;6.70;;
28623;SDS011;15813;46.932;19.658;2023-05-07T05:39:36;8.85;;;7.63;;
28623;SDS011;15813;46.932;19.658;2023-05-07T05:42:01;11.07;;;7.20;;
28623;SDS011;15813;46.932;19.658;2023-05-07T05:44:26;9.55;;;7.43;;
28623;SDS011;15813;46.932;19.658;2023-05-07T05:46:52;10.55;;;7.15;;
28623;SDS011;15813;46.932;19.658;2023-05-07T05:49:20;10.38;;;7.55;;
28623;SDS011;15813;46.932;19.658;2023-05-07T05:51:45;12.07;;;7.78;;
28623;SDS011;15813;46.932;19.658;2023-05-07T05:54:10;13.30;;;7.88;;
28623;SDS011;15813;46.932;19.658;2023-05-07T05:56:36;9.68;;;7.60;;
28623;SDS011;15813;46.932;19.658;2023-05-07T05:59:01;12.10;;;7.68;;
28623;SDS011;15813;46.932;19.658;2023-05-07T06:01:27;11.23;;;6.22;;
28623;SDS011;15813;46.932;19.658;2023-05-07T06:03:52;16.08;;;7.07;;
28623;SDS011;15813;46.932;19.658;2023-05-07T06:06:17;9.20;;;6.47;;
28623;SDS011;15813;46.932;19.658;2023-05-07T06:08:43;8.50;;;5.97;;
28623;SDS011;15813;46.932;19.658;2023-05-07T06:11:08;12.52;;;6.50;;
28623;SDS011;15813;46.932;19.658;2023-05-07T06:13:33;8.65;;;6.32;;
28623;SDS011;15813;46.932;19.658;2023-05-07T06:15:58;12.18;;;5.90;;
28623;SDS011;15813;46.932;19.658;2023-05-07T06:18:24;9.70;;;6.20;;
28623;SDS011;15813;46.932;19.658;2023-05-07T06:20:50;12.30;;;6.47;;
28623;SDS011;15813;46.932;19.658;2023-05-07T06:23:15;9.77;;;5.78;;
28623;SDS011;15813;46.932;19.658;2023-05-07T06:25:40;9.50;;;6.15;;
28623;SDS011;15813;46.932;19.658;2023-05-07T06:28:06;11.57;;;6.10;;
28623;SDS011;15813;46.932;19.658;2023-05-07T06:30:31;9.80;;;6.60;;
28623;SDS011;15813;46.932;19.658;2023-05-07T06:32:56;12.00;;;6.60;;
28623;SDS011;15813;46.932;19.658;2023-05-07T06:35:21;10.30;;;6.13;;
28623;SDS011;15813;46.932;19.658;2023-05-07T06:37:47;8.20;;;5.53;;
28623;SDS011;15813;46.932;19.658;2023-05-07T06:40:12;13.63;;;5.97;;
28623;SDS011;15813;46.932;19.658;2023-05-07T06:42:37;8.70;;;5.70;;
28623;SDS011;15813;46.932;19.658;2023-05-07T06:45:03;11.55;;;6.40;;
28623;SDS011;15813;46.932;19.658;2023-05-07T06:47:28;11.32;;;5.65;;
28623;SDS011;15813;46.932;19.658;2023-05-07T06:49:54;8.67;;;5.37;;
28623;SDS011;15813;46.932;19.658;2023-05-07T06:52:19;13.73;;;5.45;;
28623;SDS011;15813;46.932;19.658;2023-05-07T06:54:44;10.63;;;5.43;;
28623;SDS011;15813;46.932;19.658;2023-05-07T06:57:10;9.85;;;5.82;;
28623;SDS011;15813;46.932;19.658;2023-05-07T06:59:35;7.05;;;5.53;;
28623;SDS011;15813;46.932;19.658;2023-05-07T07:02:00;10.48;;;5.15;;
28623;SDS011;15813;46.932;19.658;2023-05-07T07:04:26;9.05;;;5.55;;
28623;SDS011;15813;46.932;19.658;2023-05-07T07:06:52;8.40;;;5.38;;
28623;SDS011;15813;46.932;19.658;2023-05-07T07:09:17;6.63;;;5.30;;
28623;SDS011;15813;46.932;19.658;2023-05-07T07:11:42;7.90;;;5.33;;
28623;SDS011;15813;46.932;19.658;2023-05-07T07:14:07;8.13;;;5.50;;
28623;SDS011;15813;46.932;19.658;2023-05-07T07:16:33;8.85;;;6.43;;
28623;SDS011;15813;46.932;19.658;2023-05-07T07:18:58;9.03;;;5.57;;
28623;SDS011;15813;46.932;19.658;2023-05-07T07:21:23;7.37;;;5.47;;
28623;SDS011;15813;46.932;19.658;2023-05-07T07:23:49;17.65;;;5.93;;
28623;SDS011;15813;46.932;19.658;2023-05-07T07:26:14;10.90;;;5.33;;
28623;SDS011;15813;46.932;19.658;2023-05-07T07:28:42;6.15;;;4.90;;
28623;SDS011;15813;46.932;19.658;2023-05-07T07:31:08;14.85;;;5.90;;
28623;SDS011;15813;46.932;19.658;2023-05-07T07:33:34;8.53;;;5.63;;
28623;SDS011;15813;46.932;19.658;2023-05-07T07:35:59;7.80;;;5.82;;
28623;SDS011;15813;46.932;19.658;2023-05-07T07:38:24;8.50;;;5.78;;
28623;SDS011;15813;46.932;19.658;2023-05-07T07:40:49;9.27;;;5.60;;
28623;SDS011;15813;46.932;19.658;2023-05-07T07:43:15;10.35;;;6.38;;
28623;SDS011;15813;46.932;19.658;2023-05-07T07:45:40;15.50;;;6.60;;
28623;SDS011;15813;46.932;19.658;2023-05-07T07:48:05;15.20;;;6.13;;
28623;SDS011;15813;46.932;19.658;2023-05-07T07:50:31;9.33;;;6.03;;
28623;SDS011;15813;46.932;19.658;2023-05-07T07:52:57;8.20;;;6.18;;
28623;SDS011;15813;46.932;19.658;2023-05-07T07:55:22;10.40;;;5.90;;
28623;SDS011;15813;46.932;19.658;2023-05-07T07:57:48;12.75;;;6.53;;
28623;SDS011;15813;46.932;19.658;2023-05-07T08:00:14;7.88;;;6.07;;
28623;SDS011;15813;46.932;19.658;2023-05-07T08:02:39;9.80;;;5.50;;
28623;SDS011;15813;46.932;19.658;2023-05-07T08:05:04;7.27;;;5.73;;
28623;SDS011;15813;46.932;19.658;2023-05-07T08:07:30;10.90;;;6.50;;
28623;SDS011;15813;46.932;19.658;2023-05-07T08:09:55;17.45;;;6.10;;
28623;SDS011;15813;46.932;19.658;2023-05-07T08:12:20;9.63;;;6.10;;
28623;SDS011;15813;46.932;19.658;2023-05-07T08:14:46;8.43;;;5.32;;
28623;SDS011;15813;46.932;19.658;2023-05-07T08:17:11;8.82;;;5.50;;
28623;SDS011;15813;46.932;19.658;2023-05-07T08:19:36;12.05;;;5.53;;
28623;SDS011;15813;46.932;19.658;2023-05-07T08:22:02;10.27;;;6.20;;
28623;SDS011;15813;46.932;19.658;2023-05-07T08:24:28;7.50;;;5.97;;
28623;SDS011;15813;46.932;19.658;2023-05-07T08:26:53;11.70;;;6.23;;
28623;SDS011;15813;46.932;19.658;2023-05-07T08:29:18;8.15;;;5.57;;
28623;SDS011;15813;46.932;19.658;2023-05-07T08:31:43;23.20;;;6.17;;
28623;SDS011;15813;46.932;19.658;2023-05-07T08:34:09;10.68;;;6.78;;
28623;SDS011;15813;46.932;19.658;2023-05-07T08:36:34;10.33;;;6.10;;
28623;SDS011;15813;46.932;19.658;2023-05-07T08:38:59;14.02;;;6.15;;
28623;SDS011;15813;46.932;19.658;2023-05-07T08:41:25;9.52;;;5.65;;
28623;SDS011;15813;46.932;19.658;2023-05-07T08:43:51;10.10;;;5.75;;
28623;SDS011;15813;46.932;19.658;2023-05-07T08:46:17;10.05;;;6.55;;
28623;SDS011;15813;46.932;19.658;2023-05-07T08:48:42;10.38;;;7.20;;
28623;SDS011;15813;46.932;19.658;2023-05-07T08:51:08;9.00;;;6.75;;
28623;SDS011;15813;46.932;19.658;2023-05-07T08:53:34;9.20;;;6.85;;
28623;SDS011;15813;46.932;19.658;2023-05-07T08:56:00;8.07;;;6.40;;
28623;SDS011;15813;46.932;19.658;2023-05-07T08:58:26;7.32;;;6.20;;
28623;SDS011;15813;46.932;19.658;2023-05-07T09:00:51;8.60;;;6.60;;
28623;SDS011;15813;46.932;19.658;2023-05-07T09:03:17;12.45;;;7.63;;
28623;SDS011;15813;46.932;19.658;2023-05-07T09:05:42;13.07;;;7.70;;
28623;SDS011;15813;46.932;19.658;2023-05-07T09:08:09;9.60;;;8.00;;
28623;SDS011;15813;46.932;19.658;2023-05-07T09:10:34;11.63;;;8.20;;
28623;SDS011;15813;46.932;19.658;2023-05-07T09:12:59;11.27;;;8.07;;
28623;SDS011;15813;46.932;19.658;2023-05-07T09:15:25;12.90;;;8.50;;
28623;SDS011;15813;46.932;19.658;2023-05-07T09:17:51;12.40;;;8.48;;
28623;SDS011;15813;46.932;19.658;2023-05-07T09:20:16;12.20;;;8.77;;
28623;SDS011;15813;46.932;19.658;2023-05-07T09:22:41;13.07;;;8.83;;
28623;SDS011;15813;46.932;19.658;2023-05-07T09:25:07;11.43;;;9.43;;
28623;SDS011;15813;46.932;19.658;2023-05-07T09:27:34;12.70;;;9.40;;
28623;SDS011;15813;46.932;19.658;2023-05-07T09:29:59;13.20;;;9.48;;
28623;SDS011;15813;46.932;19.658;2023-05-07T09:32:27;15.30;;;9.23;;
28623;SDS011;15813;46.932;19.658;2023-05-07T09:34:53;13.27;;;9.88;;
28623;SDS011;15813;46.932;19.658;2023-05-07T09:37:18;12.63;;;9.43;;
28623;SDS011;15813;46.932;19.658;2023-05-07T09:39:44;11.50;;;9.38;;
28623;SDS011;15813;46.932;19.658;2023-05-07T09:42:09;15.77;;;10.55;;
28623;SDS011;15813;46.932;19.658;2023-05-07T09:44:36;10.27;;;8.48;;
28623;SDS011;15813;46.932;19.658;2023-05-07T09:47:02;17.75;;;10.40;;
28623;SDS011;15813;46.932;19.658;2023-05-07T09:49:29;13.07;;;8.90;;
28623;SDS011;15813;46.932;19.658;2023-05-07T09:51:55;13.02;;;9.00;;
28623;SDS011;15813;46.932;19.658;2023-05-07T09:54:21;11.50;;;8.02;;
28623;SDS011;15813;46.932;19.658;2023-05-07T09:56:50;10.23;;;7.68;;
28623;SDS011;15813;46.932;19.658;2023-05-07T09:59:16;14.65;;;8.07;;
28623;SDS011;15813;46.932;19.658;2023-05-07T10:01:42;10.18;;;7.97;;
28623;SDS011;15813;46.932;19.658;2023-05-07T10:04:08;11.30;;;7.53;;
28623;SDS011;15813;46.932;19.658;2023-05-07T10:06:34;10.88;;;8.45;;
28623;SDS011;15813;46.932;19.658;2023-05-07T10:08:59;13.00;;;8.60;;
28623;SDS011;15813;46.932;19.658;2023-05-07T10:11:25;9.93;;;7.95;;
28623;SDS011;15813;46.932;19.658;2023-05-07T10:13:51;13.13;;;8.07;;
28623;SDS011;15813;46.932;19.658;2023-05-07T10:16:17;12.32;;;8.48;;
28623;SDS011;15813;46.932;19.658;2023-05-07T10:18:43;11.77;;;8.65;;
28623;SDS011;15813;46.932;19.658;2023-05-07T10:21:11;12.35;;;7.95;;
28623;SDS011;15813;46.932;19.658;2023-05-07T10:23:36;14.50;;;8.30;;
28623;SDS011;15813;46.932;19.658;2023-05-07T10:26:03;10.85;;;8.73;;
28623;SDS011;15813;46.932;19.658;2023-05-07T10:28:29;8.70;;;7.30;;
28623;SDS011;15813;46.932;19.658;2023-05-07T10:33:41;12.07;;;8.02;;
28623;SDS011;15813;46.932;19.658;2023-05-07T10:36:07;10.57;;;9.20;;
28623;SDS011;15813;46.932;19.658;2023-05-07T10:38:33;12.88;;;8.85;;
28623;SDS011;15813;46.932;19.658;2023-05-07T10:40:58;10.23;;;7.80;;
28623;SDS011;15813;46.932;19.658;2023-05-07T10:43:24;8.13;;;7.32;;
28623;SDS011;15813;46.932;19.658;2023-05-07T10:48:33;9.73;;;6.85;;
28623;SDS011;15813;46.932;19.658;2023-05-07T10:53:47;7.20;;;6.10;;
28623;SDS011;15813;46.932;19.658;2023-05-07T10:58:46;8.15;;;6.30;;
28623;SDS011;15813;46.932;19.658;2023-05-07T11:01:11;7.60;;;6.43;;
28623;SDS011;15813;46.932;19.658;2023-05-07T11:04:12;8.45;;;6.95;;
28623;SDS011;15813;46.932;19.658;2023-05-07T11:06:23;7.85;;;6.75;;
28623;SDS011;15813;46.932;19.658;2023-05-07T11:11:16;7.70;;;6.90;;
28623;SDS011;15813;46.932;19.658;2023-05-07T11:16:19;7.80;;;6.85;;
28623;SDS011;15813;46.932;19.658;2023-05-07T11:18:49;8.90;;;6.82;;
28623;SDS011;15813;46.932;19.658;2023-05-07T11:21:36;8.75;;;6.70;;
28623;SDS011;15813;46.932;19.658;2023-05-07T11:24:00;10.00;;;6.72;;
28623;SDS011;15813;46.932;19.658;2023-05-07T11:26:27;9.38;;;6.55;;
28623;SDS011;15813;46.932;19.658;2023-05-07T11:28:52;10.63;;;6.20;;
28623;SDS011;15813;46.932;19.658;2023-05-07T11:31:22;12.52;;;6.45;;
28623;SDS011;15813;46.932;19.658;2023-05-07T11:33:48;7.75;;;5.28;;
28623;SDS011;15813;46.932;19.658;2023-05-07T11:36:13;8.80;;;4.53;;
28623;SDS011;15813;46.932;19.658;2023-05-07T11:38:39;4.95;;;3.83;;
28623;SDS011;15813;46.932;19.658;2023-05-07T11:41:04;3.25;;;2.83;;
28623;SDS011;15813;46.932;19.658;2023-05-07T11:43:30;3.13;;;2.63;;
28623;SDS011;15813;46.932;19.658;2023-05-07T11:45:58;4.40;;;2.97;;
28623;SDS011;15813;46.932;19.658;2023-05-07T11:48:29;4.90;;;3.67;;
28623;SDS011;15813;46.932;19.658;2023-05-07T11:53:26;6.37;;;4.07;;
28623;SDS011;15813;46.932;19.658;2023-05-07T11:55:53;5.57;;;4.03;;
28623;SDS011;15813;46.932;19.658;2023-05-07T11:58:24;4.88;;;3.65;;
28623;SDS011;15813;46.932;19.658;2023-05-07T12:00:51;4.93;;;3.70;;
28623;SDS011;15813;46.932;19.658;2023-05-07T12:03:16;9.80;;;4.28;;
28623;SDS011;15813;46.932;19.658;2023-05-07T12:05:43;9.18;;;4.40;;
28623;SDS011;15813;46.932;19.658;2023-05-07T12:08:08;4.80;;;4.25;;
28623;SDS011;15813;46.932;19.658;2023-05-07T12:10:40;6.30;;;3.97;;
28623;SDS011;15813;46.932;19.658;2023-05-07T12:13:13;4.97;;;4.38;;
28623;SDS011;15813;46.932;19.658;2023-05-07T12:15:38;5.38;;;3.83;;
28623;SDS011;15813;46.932;19.658;2023-05-07T12:18:04;4.87;;;4.10;;
28623;SDS011;15813;46.932;19.658;2023-05-07T12:20:30;5.43;;;4.03;;
28623;SDS011;15813;46.932;19.658;2023-05-07T12:22:55;6.25;;;3.67;;
28623;SDS011;15813;46.932;19.658;2023-05-07T12:25:21;3.80;;;3.33;;
28623;SDS011;15813;46.932;19.658;2023-05-07T12:27:50;6.22;;;4.50;;
28623;SDS011;15813;46.932;19.658;2023-05-07T12:30:16;3.47;;;2.70;;
28623;SDS011;15813;46.932;19.658;2023-05-07T12:32:42;2.63;;;2.42;;
28623;SDS011;15813;46.932;19.658;2023-05-07T12:35:10;1.73;;;1.63;;
28623;SDS011;15813;46.932;19.658;2023-05-07T12:37:35;2.55;;;1.90;;
28623;SDS011;15813;46.932;19.658;2023-05-07T12:40:09;2.97;;;1.65;;
28623;SDS011;15813;46.932;19.658;2023-05-07T12:42:35;3.67;;;2.10;;
28623;SDS011;15813;46.932;19.658;2023-05-07T12:45:11;2.03;;;1.60;;
28623;SDS011;15813;46.932;19.658;2023-05-07T12:47:36;4.53;;;1.52;;
28623;SDS011;15813;46.932;19.658;2023-05-07T12:50:04;1.80;;;1.20;;
28623;SDS011;15813;46.932;19.658;2023-05-07T12:52:30;1.40;;;1.27;;
28623;SDS011;15813;46.932;19.658;2023-05-07T12:54:56;1.60;;;1.42;;
28623;SDS011;15813;46.932;19.658;2023-05-07T12:57:21;1.53;;;1.40;;
28623;SDS011;15813;46.932;19.658;2023-05-07T12:59:47;1.80;;;1.30;;
28623;SDS011;15813;46.932;19.658;2023-05-07T13:02:12;1.30;;;1.20;;
28623;SDS011;15813;46.932;19.658;2023-05-07T13:04:37;1.37;;;1.27;;
28623;SDS011;15813;46.932;19.658;2023-05-07T13:07:02;1.43;;;1.30;;
28623;SDS011;15813;46.932;19.658;2023-05-07T13:09:28;2.15;;;1.50;;
28623;SDS011;15813;46.932;19.658;2023-05-07T13:11:54;2.67;;;1.60;;
28623;SDS011;15813;46.932;19.658;2023-05-07T13:14:19;2.10;;;1.33;;
28623;SDS011;15813;46.932;19.658;2023-05-07T13:16:46;2.08;;;1.50;;
28623;SDS011;15813;46.932;19.658;2023-05-07T13:19:11;2.00;;;1.45;;
28623;SDS011;15813;46.932;19.658;2023-05-07T13:21:36;2.17;;;1.63;;
28623;SDS011;15813;46.932;19.658;2023-05-07T13:24:02;2.38;;;1.45;;
28623;SDS011;15813;46.932;19.658;2023-05-07T13:26:27;3.63;;;2.50;;
28623;SDS011;15813;46.932;19.658;2023-05-07T13:28:53;1.50;;;1.40;;
28623;SDS011;15813;46.932;19.658;2023-05-07T13:31:18;2.35;;;2.10;;
28623;SDS011;15813;46.932;19.658;2023-05-07T13:33:45;3.05;;;1.90;;
28623;SDS011;15813;46.932;19.658;2023-05-07T13:36:11;4.17;;;2.00;;
28623;SDS011;15813;46.932;19.658;2023-05-07T13:38:36;3.70;;;1.70;;
28623;SDS011;15813;46.932;19.658;2023-05-07T13:41:01;1.73;;;1.60;;
28623;SDS011;15813;46.932;19.658;2023-05-07T13:43:26;2.07;;;1.90;;
28623;SDS011;15813;46.932;19.658;2023-05-07T13:45:52;2.23;;;2.00;;
28623;SDS011;15813;46.932;19.658;2023-05-07T13:48:17;3.80;;;2.20;;
28623;SDS011;15813;46.932;19.658;2023-05-07T13:50:42;2.30;;;2.10;;
28623;SDS011;15813;46.932;19.658;2023-05-07T13:53:08;3.25;;;2.10;;
28623;SDS011;15813;46.932;19.658;2023-05-07T13:55:33;2.33;;;1.92;;
28623;SDS011;15813;46.932;19.658;2023-05-07T13:57:59;3.30;;;2.08;;
28623;SDS011;15813;46.932;19.658;2023-05-07T14:00:25;3.00;;;1.80;;
28623;SDS011;15813;46.932;19.658;2023-05-07T14:02:51;3.20;;;1.70;;
28623;SDS011;15813;46.932;19.658;2023-05-07T14:05:16;2.55;;;1.85;;
28623;SDS011;15813;46.932;19.658;2023-05-07T14:07:42;4.80;;;1.60;;
28623;SDS011;15813;46.932;19.658;2023-05-07T14:10:07;2.00;;;1.57;;
28623;SDS011;15813;46.932;19.658;2023-05-07T14:12:33;3.55;;;1.75;;
28623;SDS011;15813;46.932;19.658;2023-05-07T14:14:58;2.30;;;1.80;;
28623;SDS011;15813;46.932;19.658;2023-05-07T14:17:24;2.50;;;1.58;;
28623;SDS011;15813;46.932;19.658;2023-05-07T14:19:53;1.63;;;1.52;;
28623;SDS011;15813;46.932;19.658;2023-05-07T14:22:19;1.98;;;1.45;;
28623;SDS011;15813;46.932;19.658;2023-05-07T14:24:45;2.55;;;1.50;;
28623;SDS011;15813;46.932;19.658;2023-05-07T14:27:10;5.47;;;1.60;;
28623;SDS011;15813;46.932;19.658;2023-05-07T14:29:35;3.27;;;1.63;;
28623;SDS011;15813;46.932;19.658;2023-05-07T14:32:01;2.25;;;1.70;;